sensor_id;sensor_type;location;lat;lon;timestamp;pressure;altitude;pressure_sealevel;temperature;humidity
70206;BME280;57593;55.896;37.396;2022-10-26T00:00:28;99830.91;;;3.22;100.00
70206;BME280;57593;55.896;37.396;2022-10-26T00:01:28;99823.34;;;3.26;100.00
70206;BME280;57593;55.896;37.396;2022-10-26T00:01:59;99823.34;;;3.21;100.00
70206;BME280;57593;55.896;37.396;2022-10-26T00:02:29;99815.28;;;3.17;100.00
70206;BME280;57593;55.896;37.396;2022-10-26T00:03:00;99825.19;;;3.20;100.00
70206;BME280;57593;55.896;37.396;2022-10-26T00:03:30;99823.09;;;3.28;100.00
70206;BME280;57593;55.896;37.396;2022-10-26T00:04:02;99820.97;;;3.30;100.00
70206;BME280;57593;55.896;37.396;2022-10-26T00:04:33;99816.31;;;3.21;100.00
70206;BME280;57593;55.896;37.396;2022-10-26T00:05:04;99812.09;;;3.26;100.00
70206;BME280;57593;55.896;37.396;2022-10-26T00:05:35;99811.06;;;3.27;100.00
70206;BME280;57593;55.896;37.396;2022-10-26T00:06:11;99806.16;;;3.20;100.00
70206;BME280;57593;55.896;37.396;2022-10-26T00:06:42;99812.38;;;3.24;100.00
70206;BME280;57593;55.896;37.396;2022-10-26T00:07:13;99802.47;;;3.26;100.00
70206;BME280;57593;55.896;37.396;2022-10-26T00:07:43;99796.72;;;3.24;100.00
70206;BME280;57593;55.896;37.396;2022-10-26T00:08:14;99811.06;;;3.27;100.00
70206;BME280;57593;55.896;37.396;2022-10-26T00:08:45;99814.72;;;3.26;100.00
70206;BME280;57593;55.896;37.396;2022-10-26T00:09:16;99803.84;;;3.13;100.00
70206;BME280;57593;55.896;37.396;2022-10-26T00:09:47;99809.06;;;3.13;100.00
70206;BME280;57593;55.896;37.396;2022-10-26T00:10:17;99809.03;;;3.18;100.00
70206;BME280;57593;55.896;37.396;2022-10-26T00:10:51;99803.53;;;3.20;100.00
70206;BME280;57593;55.896;37.396;2022-10-26T00:11:22;99803.59;;;3.15;100.00
70206;BME280;57593;55.896;37.396;2022-10-26T00:11:52;99807.50;;;3.12;100.00
70206;BME280;57593;55.896;37.396;2022-10-26T00:12:23;99808.53;;;3.11;100.00
70206;BME280;57593;55.896;37.396;2022-10-26T00:12:54;99805.88;;;3.21;100.00
70206;BME280;57593;55.896;37.396;2022-10-26T00:13:24;99807.69;;;3.21;100.00
70206;BME280;57593;55.896;37.396;2022-10-26T00:13:55;99806.16;;;3.20;100.00
70206;BME280;57593;55.896;37.396;2022-10-26T00:14:26;99798.03;;;3.27;100.00
70206;BME280;57593;55.896;37.396;2022-10-26T00:14:57;99805.34;;;3.19;100.00
70206;BME280;57593;55.896;37.396;2022-10-26T00:15:28;99801.19;;;3.18;100.00
70206;BME280;57593;55.896;37.396;2022-10-26T00:15:59;99806.47;;;3.08;100.00
70206;BME280;57593;55.896;37.396;2022-10-26T00:16:29;99796.03;;;3.13;100.00
70206;BME280;57593;55.896;37.396;2022-10-26T00:17:00;99795.44;;;3.21;100.00
70206;BME280;57593;55.896;37.396;2022-10-26T00:17:31;99799.63;;;3.17;100.00
70206;BME280;57593;55.896;37.396;2022-10-26T00:18:02;99784.97;;;3.27;100.00
70206;BME280;57593;55.896;37.396;2022-10-26T00:18:32;99787.91;;;3.15;100.00
70206;BME280;57593;55.896;37.396;2022-10-26T00:19:03;99796.97;;;3.28;100.00
70206;BME280;57593;55.896;37.396;2022-10-26T00:19:33;99795.44;;;3.21;100.00
70206;BME280;57593;55.896;37.396;2022-10-26T00:20:04;99793.56;;;3.32;100.00
70206;BME280;57593;55.896;37.396;2022-10-26T00:20:35;99799.06;;;3.31;100.00
70206;BME280;57593;55.896;37.396;2022-10-26T00:21:07;99789.69;;;3.19;100.00
70206;BME280;57593;55.896;37.396;2022-10-26T00:21:38;99799.66;;;3.12;100.00
70206;BME280;57593;55.896;37.396;2022-10-26T00:22:09;99795.19;;;3.23;100.00
70206;BME280;57593;55.896;37.396;2022-10-26T00:22:40;99799.06;;;3.26;100.00
70206;BME280;57593;55.896;37.396;2022-10-26T00:23:10;99793.34;;;3.23;100.00
70206;BME280;57593;55.896;37.396;2022-10-26T00:23:41;99792.34;;;3.14;100.00
70206;BME280;57593;55.896;37.396;2022-10-26T00:24:12;99796.72;;;3.24;100.00
70206;BME280;57593;55.896;37.396;2022-10-26T00:24:42;99797.53;;;3.24;100.00
70206;BME280;57593;55.896;37.396;2022-10-26T00:25:13;99798.81;;;3.22;100.00
70206;BME280;57593;55.896;37.396;2022-10-26T00:25:44;99791.22;;;3.31;100.00
70206;BME280;57593;55.896;37.396;2022-10-26T00:26:14;99796.94;;;3.33;100.00
70206;BME280;57593;55.896;37.396;2022-10-26T00:26:46;99800.84;;;3.30;100.00
70206;BME280;57593;55.896;37.396;2022-10-26T00:27:17;99799.28;;;3.34;100.00
70206;BME280;57593;55.896;37.396;2022-10-26T00:27:47;99806.63;;;3.32;100.00
70206;BME280;57593;55.896;37.396;2022-10-26T00:28:18;99807.84;;;3.45;100.00
70206;BME280;57593;55.896;37.396;2022-10-26T00:28:52;99811.72;;;3.53;100.00
70206;BME280;57593;55.896;37.396;2022-10-26T00:29:23;99810.50;;;3.35;100.00
70206;BME280;57593;55.896;37.396;2022-10-26T00:29:53;99805.81;;;3.37;100.00
70206;BME280;57593;55.896;37.396;2022-10-26T00:30:24;99807.91;;;3.30;100.00
70206;BME280;57593;55.896;37.396;2022-10-26T00:30:59;99804.28;;;3.26;100.00
70206;BME280;57593;55.896;37.396;2022-10-26T00:31:30;99803.19;;;3.37;100.00
70206;BME280;57593;55.896;37.396;2022-10-26T00:32:00;99809.47;;;3.36;100.00
70206;BME280;57593;55.896;37.396;2022-10-26T00:32:31;99818.41;;;3.24;100.00
70206;BME280;57593;55.896;37.396;2022-10-26T00:33:02;99809.69;;;3.39;100.00
70206;BME280;57593;55.896;37.396;2022-10-26T00:33:33;99807.34;;;3.38;100.00
70206;BME280;57593;55.896;37.396;2022-10-26T00:34:04;99815.75;;;3.30;100.00
70206;BME280;57593;55.896;37.396;2022-10-26T00:34:35;99812.59;;;3.33;100.00
70206;BME280;57593;55.896;37.396;2022-10-26T00:35:06;99802.97;;;3.28;100.00
70206;BME280;57593;55.896;37.396;2022-10-26T00:35:36;99801.63;;;3.36;100.00
70206;BME280;57593;55.896;37.396;2022-10-26T00:36:07;99805.00;;;3.41;100.00
70206;BME280;57593;55.896;37.396;2022-10-26T00:36:39;99801.59;;;3.41;100.00
70206;BME280;57593;55.896;37.396;2022-10-26T00:37:10;99798.56;;;3.23;100.00
70206;BME280;57593;55.896;37.396;2022-10-26T00:37:40;99800.31;;;3.33;100.00
70206;BME280;57593;55.896;37.396;2022-10-26T00:38:11;99807.44;;;3.22;100.00
70206;BME280;57593;55.896;37.396;2022-10-26T00:38:41;99799.59;;;3.28;100.00
70206;BME280;57593;55.896;37.396;2022-10-26T00:39:15;99797.22;;;3.31;100.00
70206;BME280;57593;55.896;37.396;2022-10-26T00:39:46;99804.78;;;3.33;100.00
70206;BME280;57593;55.896;37.396;2022-10-26T00:40:16;99803.72;;;3.34;100.00
70206;BME280;57593;55.896;37.396;2022-10-26T00:40:47;99805.84;;;3.27;100.00
70206;BME280;57593;55.896;37.396;2022-10-26T00:41:29;99813.47;;;3.18;100.00
70206;BME280;57593;55.896;37.396;2022-10-26T00:42:03;99808.41;;;3.37;100.00
70206;BME280;57593;55.896;37.396;2022-10-26T00:42:34;99812.59;;;3.33;100.00
70206;BME280;57593;55.896;37.396;2022-10-26T00:43:35;99810.25;;;3.31;100.00
70206;BME280;57593;55.896;37.396;2022-10-26T00:44:59;99801.41;;;3.27;100.00
70206;BME280;57593;55.896;37.396;2022-10-26T00:45:31;99814.19;;;3.29;100.00
70206;BME280;57593;55.896;37.396;2022-10-26T00:46:05;99808.19;;;3.28;100.00
70206;BME280;57593;55.896;37.396;2022-10-26T00:46:37;99806.44;;;3.18;100.00
70206;BME280;57593;55.896;37.396;2022-10-26T00:47:09;99801.94;;;3.24;100.00
70206;BME280;57593;55.896;37.396;2022-10-26T00:47:45;99801.66;;;3.31;100.00
70206;BME280;57593;55.896;37.396;2022-10-26T00:48:25;99803.19;;;3.32;100.00
70206;BME280;57593;55.896;37.396;2022-10-26T00:49:08;99801.66;;;3.31;100.00
70206;BME280;57593;55.896;37.396;2022-10-26T00:49:43;99796.97;;;3.28;100.00
70206;BME280;57593;55.896;37.396;2022-10-26T00:50:18;99804.88;;;3.12;100.00
70206;BME280;57593;55.896;37.396;2022-10-26T00:50:50;99800.63;;;3.27;100.00
70206;BME280;57593;55.896;37.396;2022-10-26T00:51:30;99799.59;;;3.28;100.00
70206;BME280;57593;55.896;37.396;2022-10-26T00:52:05;99801.13;;;3.34;100.00
70206;BME280;57593;55.896;37.396;2022-10-26T00:52:37;99795.31;;;3.42;100.00
70206;BME280;57593;55.896;37.396;2022-10-26T00:53:09;99794.72;;;3.50;100.00
70206;BME280;57593;55.896;37.396;2022-10-26T00:53:40;99796.09;;;3.42;100.00
70206;BME280;57593;55.896;37.396;2022-10-26T00:54:15;99795.63;;;3.35;100.00
70206;BME280;57593;55.896;37.396;2022-10-26T00:54:47;99795.34;;;3.37;100.00
70206;BME280;57593;55.896;37.396;2022-10-26T00:55:21;99798.69;;;3.42;100.00
70206;BME280;57593;55.896;37.396;2022-10-26T00:55:54;99801.59;;;3.41;100.00
70206;BME280;57593;55.896;37.396;2022-10-26T00:56:26;99802.59;;;3.45;100.00
70206;BME280;57593;55.896;37.396;2022-10-26T00:56:56;99804.38;;;3.55;100.00
70206;BME280;57593;55.896;37.396;2022-10-26T00:57:27;99804.72;;;3.43;100.00
70206;BME280;57593;55.896;37.396;2022-10-26T00:58:00;99799.78;;;3.41;100.00
70206;BME280;57593;55.896;37.396;2022-10-26T00:58:33;99801.53;;;3.51;100.00
70206;BME280;57593;55.896;37.396;2022-10-26T00:59:07;99796.34;;;3.46;100.00
70206;BME280;57593;55.896;37.396;2022-10-26T00:59:39;99793.47;;;3.42;100.00
70206;BME280;57593;55.896;37.396;2022-10-26T01:00:10;99799.06;;;3.31;100.00
70206;BME280;57593;55.896;37.396;2022-10-26T01:00:41;99797.44;;;3.35;100.00
70206;BME280;57593;55.896;37.396;2022-10-26T01:01:13;99795.38;;;3.32;100.00
70206;BME280;57593;55.896;37.396;2022-10-26T01:01:45;99800.09;;;3.30;100.00
70206;BME280;57593;55.896;37.396;2022-10-26T01:02:17;99796.94;;;3.33;100.00
70206;BME280;57593;55.896;37.396;2022-10-26T01:02:49;99796.41;;;3.36;100.00
70206;BME280;57593;55.896;37.396;2022-10-26T01:03:22;99797.97;;;3.32;100.00
70206;BME280;57593;55.896;37.396;2022-10-26T01:03:57;99796.19;;;3.27;100.00
70206;BME280;57593;55.896;37.396;2022-10-26T01:04:29;99800.91;;;3.25;100.00
70206;BME280;57593;55.896;37.396;2022-10-26T01:05:02;99794.63;;;3.26;100.00
70206;BME280;57593;55.896;37.396;2022-10-26T01:05:36;99800.84;;;3.30;100.00
70206;BME280;57593;55.896;37.396;2022-10-26T01:06:08;99806.34;;;3.34;100.00
70206;BME280;57593;55.896;37.396;2022-10-26T01:06:41;99799.84;;;3.26;100.00
70206;BME280;57593;55.896;37.396;2022-10-26T01:07:12;99795.09;;;3.33;100.00
70206;BME280;57593;55.896;37.396;2022-10-26T01:07:44;99800.09;;;3.30;100.00
70206;BME280;57593;55.896;37.396;2022-10-26T01:08:16;99795.09;;;3.33;100.00
70206;BME280;57593;55.896;37.396;2022-10-26T01:08:48;99792.22;;;3.35;100.00
70206;BME280;57593;55.896;37.396;2022-10-26T01:09:19;99791.22;;;3.31;100.00
70206;BME280;57593;55.896;37.396;2022-10-26T01:09:50;99787.25;;;3.33;100.00
70206;BME280;57593;55.896;37.396;2022-10-26T01:10:24;99797.22;;;3.31;100.00
70206;BME280;57593;55.896;37.396;2022-10-26T01:10:56;99798.25;;;3.30;100.00
70206;BME280;57593;55.896;37.396;2022-10-26T01:11:27;99800.84;;;3.30;100.00
70206;BME280;57593;55.896;37.396;2022-10-26T01:11:58;99800.84;;;3.30;100.00
70206;BME280;57593;55.896;37.396;2022-10-26T01:12:28;99794.38;;;3.22;100.00
70206;BME280;57593;55.896;37.396;2022-10-26T01:13:00;99794.69;;;3.16;100.00
70206;BME280;57593;55.896;37.396;2022-10-26T01:13:33;99792.84;;;3.21;100.00
70206;BME280;57593;55.896;37.396;2022-10-26T01:14:07;99788.66;;;3.20;100.00
70206;BME280;57593;55.896;37.396;2022-10-26T01:14:39;99793.34;;;3.23;100.00
70206;BME280;57593;55.896;37.396;2022-10-26T01:15:10;99794.16;;;3.19;100.00
70206;BME280;57593;55.896;37.396;2022-10-26T01:18:24;99787.66;;;3.11;100.00
70206;BME280;57593;55.896;37.396;2022-10-26T01:22:14;99784.00;;;3.12;100.00
70206;BME280;57593;55.896;37.396;2022-10-26T01:23:22;99793.69;;;3.06;100.00
70206;BME280;57593;55.896;37.396;2022-10-26T01:24:34;99796.28;;;3.12;100.00
70206;BME280;57593;55.896;37.396;2022-10-26T01:26:25;99800.78;;;3.01;100.00
70206;BME280;57593;55.896;37.396;2022-10-26T01:28:01;99798.69;;;2.98;100.00
70206;BME280;57593;55.896;37.396;2022-10-26T01:30:59;99800.03;;;2.90;100.00
70206;BME280;57593;55.896;37.396;2022-10-26T01:31:59;99795.63;;;2.85;100.00
70206;BME280;57593;55.896;37.396;2022-10-26T01:33:55;99795.66;;;2.70;100.00
70206;BME280;57593;55.896;37.396;2022-10-26T01:34:35;99799.81;;;2.76;100.00
70206;BME280;57593;55.896;37.396;2022-10-26T01:35:17;99799.84;;;2.66;100.00
70206;BME280;57593;55.896;37.396;2022-10-26T01:36:09;99799.31;;;2.69;100.00
70206;BME280;57593;55.896;37.396;2022-10-26T01:36:54;99800.66;;;2.61;100.00
70206;BME280;57593;55.896;37.396;2022-10-26T01:37:29;99796.22;;;2.57;100.00
70206;BME280;57593;55.896;37.396;2022-10-26T01:38:11;99795.72;;;2.55;100.00
70206;BME280;57593;55.896;37.396;2022-10-26T01:39:28;99794.41;;;2.57;100.00
70206;BME280;57593;55.896;37.396;2022-10-26T01:40:11;99801.44;;;2.62;100.00
70206;BME280;57593;55.896;37.396;2022-10-26T01:41:33;99792.56;;;2.63;100.00
70206;BME280;57593;55.896;37.396;2022-10-26T01:41:47;99796.22;;;2.57;100.00
70206;BME280;57593;55.896;37.396;2022-10-26T01:42:21;99795.22;;;2.53;100.00
70206;BME280;57593;55.896;37.396;2022-10-26T01:42:53;99799.38;;;2.59;100.00
70206;BME280;57593;55.896;37.396;2022-10-26T01:43:30;99792.06;;;2.56;100.00
70206;BME280;57593;55.896;37.396;2022-10-26T01:45:02;99789.47;;;2.50;100.00
70206;BME280;57593;55.896;37.396;2022-10-26T01:45:36;99791.81;;;2.57;100.00
70206;BME280;57593;55.896;37.396;2022-10-26T01:46:10;99790.75;;;2.53;100.00
70206;BME280;57593;55.896;37.396;2022-10-26T01:46:44;99795.22;;;2.53;100.00
70206;BME280;57593;55.896;37.396;2022-10-26T01:47:17;99787.38;;;2.47;100.00
70206;BME280;57593;55.896;37.396;2022-10-26T01:47:51;99800.19;;;2.44;100.00
70206;BME280;57593;55.896;37.396;2022-10-26T01:48:24;99805.91;;;2.46;100.00
70206;BME280;57593;55.896;37.396;2022-10-26T01:48:58;99794.16;;;2.59;100.00
70206;BME280;57593;55.896;37.396;2022-10-26T01:49:35;99797.28;;;2.56;100.00
70206;BME280;57593;55.896;37.396;2022-10-26T01:50:09;99802.00;;;2.48;100.00
70206;BME280;57593;55.896;37.396;2022-10-26T01:50:41;99808.25;;;2.47;100.00
70206;BME280;57593;55.896;37.396;2022-10-26T01:51:15;99799.91;;;2.45;100.00
70206;BME280;57593;55.896;37.396;2022-10-26T01:51:47;99805.63;;;2.58;100.00
70206;BME280;57593;55.896;37.396;2022-10-26T01:52:19;99796.22;;;2.62;100.00
70206;BME280;57593;55.896;37.396;2022-10-26T01:52:50;99795.97;;;2.58;100.00
70206;BME280;57593;55.896;37.396;2022-10-26T01:53:21;99798.03;;;2.61;100.00
70206;BME280;57593;55.896;37.396;2022-10-26T01:53:51;99800.66;;;2.56;100.00
70206;BME280;57593;55.896;37.396;2022-10-26T01:54:22;99802.72;;;2.64;100.00
70206;BME280;57593;55.896;37.396;2022-10-26T01:55:05;99807.66;;;2.66;100.00
70206;BME280;57593;55.896;37.396;2022-10-26T01:55:44;99803.25;;;2.61;100.00
70206;BME280;57593;55.896;37.396;2022-10-26T01:56:26;99800.94;;;2.55;100.00
70206;BME280;57593;55.896;37.396;2022-10-26T01:57:01;99806.16;;;2.55;100.00
70206;BME280;57593;55.896;37.396;2022-10-26T01:57:35;99796.22;;;2.57;100.00
70206;BME280;57593;55.896;37.396;2022-10-26T01:58:22;99798.56;;;2.63;100.00
70206;BME280;57593;55.896;37.396;2022-10-26T02:00:00;99804.03;;;2.57;100.00
70206;BME280;57593;55.896;37.396;2022-10-26T02:00:35;99794.66;;;2.50;100.00
70206;BME280;57593;55.896;37.396;2022-10-26T02:06:16;99802.53;;;2.45;100.00
70206;BME280;57593;55.896;37.396;2022-10-26T02:07:01;99792.63;;;2.37;100.00
70206;BME280;57593;55.896;37.396;2022-10-26T02:07:39;99791.06;;;2.46;100.00
70206;BME280;57593;55.896;37.396;2022-10-26T02:09:19;99793.91;;;2.40;100.00
70206;BME280;57593;55.896;37.396;2022-10-26T02:10:48;99799.41;;;2.43;100.00
70206;BME280;57593;55.896;37.396;2022-10-26T02:11:35;99798.34;;;2.49;100.00
70206;BME280;57593;55.896;37.396;2022-10-26T02:12:20;99797.78;;;2.58;100.00
70206;BME280;57593;55.896;37.396;2022-10-26T02:13:00;99794.13;;;2.64;100.00
70206;BME280;57593;55.896;37.396;2022-10-26T02:14:48;99797.75;;;2.68;100.00
70206;BME280;57593;55.896;37.396;2022-10-26T02:17:09;99792.28;;;2.64;100.00
70206;BME280;57593;55.896;37.396;2022-10-26T02:17:58;99793.63;;;2.62;100.00
70206;BME280;57593;55.896;37.396;2022-10-26T02:20:14;99793.06;;;2.65;100.00
70206;BME280;57593;55.896;37.396;2022-10-26T02:20:46;99795.44;;;2.61;100.00
70206;BME280;57593;55.896;37.396;2022-10-26T02:21:36;99787.59;;;2.61;100.00
70206;BME280;57593;55.896;37.396;2022-10-26T02:22:49;99798.28;;;2.65;100.00
70206;BME280;57593;55.896;37.396;2022-10-26T02:23:22;99797.25;;;2.61;100.00
70206;BME280;57593;55.896;37.396;2022-10-26T02:23:55;99790.75;;;2.63;100.00
70206;BME280;57593;55.896;37.396;2022-10-26T02:24:28;99802.22;;;2.62;100.00
70206;BME280;57593;55.896;37.396;2022-10-26T02:25:06;99792.31;;;2.59;100.00
70206;BME280;57593;55.896;37.396;2022-10-26T02:25:43;99800.34;;;2.68;100.00
70206;BME280;57593;55.896;37.396;2022-10-26T02:26:17;99794.59;;;2.71;100.00
70206;BME280;57593;55.896;37.396;2022-10-26T02:26:51;99798.75;;;2.82;100.00
70206;BME280;57593;55.896;37.396;2022-10-26T02:27:25;99797.47;;;2.75;100.00
70206;BME280;57593;55.896;37.396;2022-10-26T02:28:10;99798.75;;;2.77;100.00
70206;BME280;57593;55.896;37.396;2022-10-26T02:28:47;99802.91;;;2.83;100.00
70206;BME280;57593;55.896;37.396;2022-10-26T02:29:19;99801.09;;;2.84;100.00
70206;BME280;57593;55.896;37.396;2022-10-26T02:29:53;99803.72;;;2.84;100.00
70206;BME280;57593;55.896;37.396;2022-10-26T02:30:25;99804.72;;;2.88;100.00
70206;BME280;57593;55.896;37.396;2022-10-26T02:30:58;99803.69;;;2.89;100.00
70206;BME280;57593;55.896;37.396;2022-10-26T02:31:30;99805.25;;;2.85;100.00
70206;BME280;57593;55.896;37.396;2022-10-26T02:32:02;99803.94;;;2.87;100.00
70206;BME280;57593;55.896;37.396;2022-10-26T02:32:36;99802.66;;;2.80;100.00
70206;BME280;57593;55.896;37.396;2022-10-26T02:33:09;99799.50;;;2.88;100.00
70206;BME280;57593;55.896;37.396;2022-10-26T02:33:46;99795.31;;;2.92;100.00
70206;BME280;57593;55.896;37.396;2022-10-26T02:34:21;99811.75;;;2.98;100.00
70206;BME280;57593;55.896;37.396;2022-10-26T02:34:55;99810.47;;;2.90;100.00
70206;BME280;57593;55.896;37.396;2022-10-26T02:35:30;99800.31;;;2.88;100.00
70206;BME280;57593;55.896;37.396;2022-10-26T02:36:04;99800.03;;;2.90;100.00
70206;BME280;57593;55.896;37.396;2022-10-26T02:36:40;99804.47;;;2.84;100.00
70206;BME280;57593;55.896;37.396;2022-10-26T02:37:14;99799.22;;;2.95;100.00
70206;BME280;57593;55.896;37.396;2022-10-26T02:37:49;99803.66;;;2.94;100.00
70206;BME280;57593;55.896;37.396;2022-10-26T02:38:21;99801.31;;;2.98;100.00
70206;BME280;57593;55.896;37.396;2022-10-26T02:38:53;99807.06;;;2.95;100.00
70206;BME280;57593;55.896;37.396;2022-10-26T02:39:28;99803.19;;;2.87;100.00
70206;BME280;57593;55.896;37.396;2022-10-26T02:40:05;99803.91;;;2.93;100.00
70206;BME280;57593;55.896;37.396;2022-10-26T02:40:37;99800.56;;;2.82;100.00
70206;BME280;57593;55.896;37.396;2022-10-26T02:41:09;99801.88;;;2.84;100.00
70206;BME280;57593;55.896;37.396;2022-10-26T02:41:43;99804.19;;;2.91;100.00
70206;BME280;57593;55.896;37.396;2022-10-26T02:42:15;99802.63;;;2.95;100.00
70206;BME280;57593;55.896;37.396;2022-10-26T02:42:49;99794.25;;;2.98;100.00
70206;BME280;57593;55.896;37.396;2022-10-26T02:43:22;99798.44;;;2.94;100.00
70206;BME280;57593;55.896;37.396;2022-10-26T02:44:25;99796.34;;;2.91;100.00
70206;BME280;57593;55.896;37.396;2022-10-26T02:45:00;99798.16;;;2.96;100.00
70206;BME280;57593;55.896;37.396;2022-10-26T02:45:45;99799.69;;;3.02;100.00
70206;BME280;57593;55.896;37.396;2022-10-26T02:46:17;99800.78;;;3.01;100.00
70206;BME280;57593;55.896;37.396;2022-10-26T02:46:50;99804.66;;;3.03;100.00
70206;BME280;57593;55.896;37.396;2022-10-26T02:47:22;99810.41;;;3.05;100.00
70206;BME280;57593;55.896;37.396;2022-10-26T02:47:56;99808.53;;;3.11;100.00
70206;BME280;57593;55.896;37.396;2022-10-26T02:48:27;99800.97;;;3.10;100.00
70206;BME280;57593;55.896;37.396;2022-10-26T02:48:58;99795.25;;;3.08;100.00
70206;BME280;57593;55.896;37.396;2022-10-26T02:49:28;99797.81;;;3.13;100.00
70206;BME280;57593;55.896;37.396;2022-10-26T02:49:59;99798.13;;;3.06;100.00
70206;BME280;57593;55.896;37.396;2022-10-26T02:50:59;99794.69;;;3.16;100.00
70206;BME280;57593;55.896;37.396;2022-10-26T02:52:05;99793.09;;;3.20;100.00
70206;BME280;57593;55.896;37.396;2022-10-26T02:53:21;99798.91;;;3.12;100.00
70206;BME280;57593;55.896;37.396;2022-10-26T02:54:02;99809.88;;;3.09;100.00
70206;BME280;57593;55.896;37.396;2022-10-26T02:54:47;99800.16;;;3.14;100.00
70206;BME280;57593;55.896;37.396;2022-10-26T02:55:27;99800.47;;;3.08;100.00
70206;BME280;57593;55.896;37.396;2022-10-26T02:56:05;99798.38;;;3.10;100.00
70206;BME280;57593;55.896;37.396;2022-10-26T02:57:00;99806.19;;;3.10;100.00
70206;BME280;57593;55.896;37.396;2022-10-26T02:57:43;99795.25;;;3.08;100.00
70206;BME280;57593;55.896;37.396;2022-10-26T02:58:27;99797.31;;;3.11;100.00
70206;BME280;57593;55.896;37.396;2022-10-26T02:59:03;99801.31;;;2.98;100.00
70206;BME280;57593;55.896;37.396;2022-10-26T02:59:37;99798.63;;;3.08;100.00
70206;BME280;57593;55.896;37.396;2022-10-26T03:00:15;99795.75;;;3.15;100.00
70206;BME280;57593;55.896;37.396;2022-10-26T03:00:47;99802.78;;;3.14;100.00
70206;BME280;57593;55.896;37.396;2022-10-26T03:01:19;99802.03;;;3.03;100.00
70206;BME280;57593;55.896;37.396;2022-10-26T03:01:50;99798.06;;;3.16;100.00
70206;BME280;57593;55.896;37.396;2022-10-26T03:02:22;99801.81;;;3.00;100.00
70206;BME280;57593;55.896;37.396;2022-10-26T03:02:55;99804.13;;;3.12;100.00
70206;BME280;57593;55.896;37.396;2022-10-26T03:03:27;99794.94;;;3.14;100.00
70206;BME280;57593;55.896;37.396;2022-10-26T03:03:58;99791.81;;;3.17;100.00
70206;BME280;57593;55.896;37.396;2022-10-26T03:04:30;99805.13;;;3.16;100.00
70206;BME280;57593;55.896;37.396;2022-10-26T03:05:29;99802.81;;;3.09;100.00
70206;BME280;57593;55.896;37.396;2022-10-26T03:06:01;99794.53;;;2.97;100.00
70206;BME280;57593;55.896;37.396;2022-10-26T03:06:32;99795.28;;;3.02;100.00
70206;BME280;57593;55.896;37.396;2022-10-26T03:07:03;99796.03;;;3.08;100.00
70206;BME280;57593;55.896;37.396;2022-10-26T03:07:34;99792.59;;;3.13;100.00
70206;BME280;57593;55.896;37.396;2022-10-26T03:08:04;99798.38;;;3.10;100.00
70206;BME280;57593;55.896;37.396;2022-10-26T03:08:35;99809.88;;;3.09;100.00
70206;BME280;57593;55.896;37.396;2022-10-26T03:09:05;99798.09;;;3.11;100.00
70206;BME280;57593;55.896;37.396;2022-10-26T03:09:36;99800.94;;;3.20;100.00
70206;BME280;57593;55.896;37.396;2022-10-26T03:10:07;99793.41;;;3.08;100.00
70206;BME280;57593;55.896;37.396;2022-10-26T03:10:43;99800.97;;;3.10;100.00
70206;BME280;57593;55.896;37.396;2022-10-26T03:11:14;99794.44;;;3.12;100.00
70206;BME280;57593;55.896;37.396;2022-10-26T03:11:45;99793.41;;;3.13;100.00
70206;BME280;57593;55.896;37.396;2022-10-26T03:12:15;99790.22;;;3.16;100.00
70206;BME280;57593;55.896;37.396;2022-10-26T03:12:46;99796.56;;;3.05;100.00
70206;BME280;57593;55.896;37.396;2022-10-26T03:13:17;99797.31;;;3.11;100.00
70206;BME280;57593;55.896;37.396;2022-10-26T03:13:47;99790.06;;;3.02;100.00
70206;BME280;57593;55.896;37.396;2022-10-26T03:14:18;99792.59;;;3.13;100.00
70206;BME280;57593;55.896;37.396;2022-10-26T03:14:49;99797.63;;;3.04;100.00
70206;BME280;57593;55.896;37.396;2022-10-26T03:15:20;99800.66;;;3.16;100.00
70206;BME280;57593;55.896;37.396;2022-10-26T03:15:54;99802.81;;;3.09;100.00
70206;BME280;57593;55.896;37.396;2022-10-26T03:16:26;99783.25;;;3.12;100.00
70206;BME280;57593;55.896;37.396;2022-10-26T03:16:57;99797.63;;;2.99;100.00
70206;BME280;57593;55.896;37.396;2022-10-26T03:17:28;99798.41;;;3.04;100.00
70206;BME280;57593;55.896;37.396;2022-10-26T03:17:58;99793.69;;;3.06;100.00
70206;BME280;57593;55.896;37.396;2022-10-26T03:18:29;99794.75;;;3.05;100.00
70206;BME280;57593;55.896;37.396;2022-10-26T03:19:00;99789.50;;;3.11;100.00
70206;BME280;57593;55.896;37.396;2022-10-26T03:19:30;99787.94;;;3.10;100.00
70206;BME280;57593;55.896;37.396;2022-10-26T03:20:01;99786.66;;;3.07;100.00
70206;BME280;57593;55.896;37.396;2022-10-26T03:20:34;99786.66;;;3.07;100.00
70206;BME280;57593;55.896;37.396;2022-10-26T03:21:05;99783.78;;;3.09;100.00
70206;BME280;57593;55.896;37.396;2022-10-26T03:21:35;99787.94;;;3.10;100.00
70206;BME280;57593;55.896;37.396;2022-10-26T03:22:06;99788.22;;;3.03;100.00
70206;BME280;57593;55.896;37.396;2022-10-26T03:22:36;99792.09;;;3.11;100.00
70206;BME280;57593;55.896;37.396;2022-10-26T03:23:07;99799.44;;;3.03;100.00
70206;BME280;57593;55.896;37.396;2022-10-26T03:23:38;99796.03;;;3.13;100.00
70206;BME280;57593;55.896;37.396;2022-10-26T03:24:09;99785.34;;;3.04;100.00
70206;BME280;57593;55.896;37.396;2022-10-26T03:24:39;99796.25;;;3.17;100.00
70206;BME280;57593;55.896;37.396;2022-10-26T03:25:10;99791.84;;;3.12;100.00
70206;BME280;57593;55.896;37.396;2022-10-26T03:25:40;99799.66;;;3.12;100.00
70206;BME280;57593;55.896;37.396;2022-10-26T03:26:11;99782.16;;;3.13;100.00
70206;BME280;57593;55.896;37.396;2022-10-26T03:26:42;99791.88;;;3.02;100.00
70206;BME280;57593;55.896;37.396;2022-10-26T03:27:13;99793.19;;;3.04;100.00
70206;BME280;57593;55.896;37.396;2022-10-26T03:27:44;99799.16;;;3.05;100.00
70206;BME280;57593;55.896;37.396;2022-10-26T03:28:14;99796.34;;;2.96;100.00